Time;durP1;ratioP1;P1;durP2;ratioP2;P2;SDS_P1;SDS_P2;PMS_P1;PMS_P2;Temp;Humidity;BMP_temperature;BMP_pressure;BME280_temperature;BME280_humidity;BME280_pressure;Samples;Min_cycle;Max_cycle;Signal;HPM_P1;HPM_P2
2023/08/19 00:00:56;;;;;;;9.57;8.68;;;24.50;84.10;;;;;;5010019;28;20026;-84
2023/08/19 00:03:22;;;;;;;10.98;9.30;;;24.50;84.00;;;;;;5011249;28;20026;-84
2023/08/19 00:05:48;;;;;;;10.00;9.00;;;24.50;84.00;;;;;;5011082;28;20033;-84
2023/08/19 00:08:13;;;;;;;10.48;9.13;;;24.50;84.00;;;;;;5011300;28;20389;-84
2023/08/19 00:10:40;;;;;;;9.85;8.85;;;24.50;84.20;;;;;;5014904;28;20105;-84
2023/08/19 00:13:06;;;;;;;9.82;8.82;;;24.50;84.20;;;;;;5029623;28;20022;-84
2023/08/19 00:15:32;;;;;;;10.95;9.85;;;24.50;84.10;;;;;;5013277;28;20029;-84
2023/08/19 00:18:00;;;;;;;10.75;8.60;;;24.50;84.10;;;;;;5013392;28;20033;-84
2023/08/19 00:20:28;;;;;;;10.52;8.88;;;24.50;84.10;;;;;;5014630;28;20018;-84
2023/08/19 00:22:58;;;;;;;10.00;8.95;;;24.50;84.10;;;;;;5014537;28;20022;-84
2023/08/19 00:25:27;;;;;;;10.07;9.07;;;24.50;84.30;;;;;;5014316;28;20409;-83
2023/08/19 00:27:53;;;;;;;10.70;8.57;;;24.40;85.10;;;;;;5014355;28;20148;-83
2023/08/19 00:30:19;;;;;;;10.68;9.57;;;24.40;84.30;;;;;;5014116;28;20030;-84
2023/08/19 00:32:46;;;;;;;10.00;9.00;;;24.40;84.60;;;;;;5012893;28;20036;-85
2023/08/19 00:35:13;;;;;;;9.93;9.02;;;24.40;84.80;;;;;;5013940;28;20572;-84
2023/08/19 00:37:39;;;;;;;10.95;9.82;;;24.40;85.00;;;;;;5014308;28;20022;-84
2023/08/19 00:40:05;;;;;;;10.85;9.57;;;24.40;85.50;;;;;;5014286;28;20032;-85
2023/08/19 00:42:32;;;;;;;10.60;9.50;;;24.40;85.90;;;;;;5014208;28;20108;-84
2023/08/19 00:44:58;;;;;;;10.50;9.52;;;24.40;86.20;;;;;;5012790;28;20022;-84
2023/08/19 00:47:26;;;;;;;12.18;10.40;;;24.40;86.60;;;;;;5012799;28;20034;-84
2023/08/19 00:49:52;;;;;;;10.43;9.40;;;24.30;86.90;;;;;;5012518;28;20030;-84
2023/08/19 00:52:18;;;;;;;11.15;9.95;;;24.30;87.10;;;;;;5012544;28;20496;-83
2023/08/19 00:54:45;;;;;;;10.75;9.73;;;24.30;87.20;;;;;;5012351;28;20084;-83
2023/08/19 00:57:12;;;;;;;10.57;9.45;;;24.30;87.30;;;;;;5013587;28;20034;-84
2023/08/19 00:59:38;;;;;;;10.77;9.38;;;24.30;87.10;;;;;;5013717;28;20502;-84
2023/08/19 01:02:04;;;;;;;10.15;9.18;;;24.30;87.10;;;;;;5013655;28;20044;-84
2023/08/19 01:04:30;;;;;;;9.75;8.85;;;24.30;87.10;;;;;;5012249;28;20076;-84
2023/08/19 01:07:28;;;;;;;10.75;9.18;;;24.30;86.80;;;;;;5013456;28;20053;-83
2023/08/19 01:10:03;;;;;;;10.88;9.88;;;24.30;86.30;;;;;;5013410;28;20436;-84
2023/08/19 01:12:50;;;;;;;9.65;8.65;;;24.30;86.80;;;;;;5028732;28;20030;-84
2023/08/19 01:15:29;;;;;;;11.90;9.18;;;24.30;86.90;;;;;;5012207;28;20427;-83
2023/08/19 01:17:56;;;;;;;11.30;10.10;;;24.30;86.70;;;;;;5013161;28;20156;-84
2023/08/19 01:20:29;;;;;;;12.52;10.48;;;24.30;87.40;;;;;;5011215;28;20025;-84
2023/08/19 01:23:06;;;;;;;11.65;10.57;;;24.30;87.90;;;;;;5011799;28;20070;-84
2023/08/19 01:25:32;;;;;;;11.40;10.30;;;24.30;88.40;;;;;;5011712;28;20061;-84
2023/08/19 01:28:05;;;;;;;11.02;9.93;;;24.20;88.30;;;;;;5013115;28;20103;-83
2023/08/19 01:30:33;;;;;;;11.82;9.57;;;24.20;88.60;;;;;;5011893;28;20041;-83
2023/08/19 01:32:59;;;;;;;11.82;10.40;;;24.20;88.90;;;;;;5028001;28;20022;-84
2023/08/19 01:35:25;;;;;;;11.32;10.23;;;24.20;88.20;;;;;;5012613;28;20045;-84
2023/08/19 01:38:00;;;;;;;10.20;9.20;;;24.20;87.70;;;;;;5012906;28;20447;-84
2023/08/19 01:40:27;;;;;;;10.48;9.48;;;24.20;87.30;;;;;;5027943;28;20021;-83
2023/08/19 01:42:54;;;;;;;13.10;10.70;;;24.20;87.60;;;;;;5027921;28;20442;-84
2023/08/19 01:45:21;;;;;;;11.35;10.20;;;24.10;88.00;;;;;;5012696;28;20029;-83
2023/08/19 01:47:52;;;;;;;11.65;9.90;;;24.10;88.30;;;;;;5012687;28;20022;-84
2023/08/19 01:50:18;;;;;;;11.38;10.23;;;24.20;89.00;;;;;;5012701;28;20037;-84
2023/08/19 01:52:44;;;;;;;13.20;11.02;;;24.20;89.80;;;;;;5027888;28;20022;-84
2023/08/19 01:55:10;;;;;;;11.85;10.75;;;24.10;90.10;;;;;;5011496;28;20030;-84
2023/08/19 01:57:35;;;;;;;12.05;10.85;;;24.10;90.30;;;;;;5027631;28;20032;-84
2023/08/19 02:00:02;;;;;;;11.85;10.68;;;24.10;90.50;;;;;;5012606;28;20022;-84
2023/08/19 02:02:28;;;;;;;11.73;10.52;;;24.10;90.60;;;;;;5011199;28;20044;-83
2023/08/19 02:04:53;;;;;;;11.18;10.18;;;24.10;90.60;;;;;;5012432;28;20030;-84
2023/08/19 02:07:19;;;;;;;11.20;10.10;;;24.10;90.20;;;;;;5012342;28;20114;-85
2023/08/19 02:09:46;;;;;;;11.20;10.00;;;24.00;90.00;;;;;;5010936;28;20025;-84
2023/08/19 02:12:11;;;;;;;11.98;10.77;;;24.10;90.00;;;;;;5011101;28;20030;-83
2023/08/19 02:14:37;;;;;;;12.82;10.90;;;24.10;89.80;;;;;;5011304;28;20040;-84
2023/08/19 02:17:03;;;;;;;11.15;10.15;;;24.00;89.60;;;;;;5027453;28;20434;-84
2023/08/19 02:19:28;;;;;;;12.15;10.95;;;24.10;89.40;;;;;;5012261;28;20026;-84
2023/08/19 02:21:54;;;;;;;10.88;9.85;;;24.00;89.40;;;;;;5012537;28;20033;-84
2023/08/19 02:24:20;;;;;;;12.20;11.00;;;24.10;89.40;;;;;;5012265;28;20030;-83
2023/08/19 02:26:45;;;;;;;11.43;10.32;;;24.00;89.20;;;;;;5012087;28;20068;-83
2023/08/19 02:29:11;;;;;;;11.55;10.35;;;24.00;89.10;;;;;;5011867;28;20033;-84
2023/08/19 02:31:38;;;;;;;11.63;10.35;;;24.00;89.00;;;;;;5027148;28;20497;-83
2023/08/19 02:34:04;;;;;;;12.48;10.70;;;24.00;88.90;;;;;;5010728;28;20034;-83
2023/08/19 02:36:30;;;;;;;11.88;10.63;;;24.00;89.00;;;;;;5011707;28;20378;-84
2023/08/19 02:38:55;;;;;;;12.15;10.82;;;24.00;89.00;;;;;;5027126;28;20040;-84
2023/08/19 02:41:21;;;;;;;11.50;10.40;;;24.00;89.80;;;;;;5027154;28;20394;-84
2023/08/19 02:43:47;;;;;;;11.73;10.45;;;24.00;89.40;;;;;;5012167;28;20509;-83
2023/08/19 02:46:12;;;;;;;12.70;10.65;;;24.00;89.30;;;;;;5011994;28;20034;-84
2023/08/19 02:48:38;;;;;;;11.65;10.55;;;24.00;89.50;;;;;;5010246;28;20072;-84
2023/08/19 02:51:03;;;;;;;12.07;10.77;;;24.00;89.60;;;;;;5011834;28;20026;-84
2023/08/19 02:53:29;;;;;;;11.88;10.68;;;23.90;89.70;;;;;;5026756;28;20025;-85
2023/08/19 02:55:55;;;;;;;14.48;10.68;;;23.90;89.80;;;;;;5026903;28;20109;-84
2023/08/19 02:58:21;;;;;;;11.80;10.60;;;23.90;90.00;;;;;;5010411;28;20478;-84
2023/08/19 03:00:47;;;;;;;11.93;10.73;;;23.90;90.00;;;;;;5011618;28;20033;-84
2023/08/19 03:03:13;;;;;;;13.43;11.50;;;23.90;90.00;;;;;;5026793;28;20382;-84
2023/08/19 03:05:39;;;;;;;11.48;10.38;;;23.90;90.00;;;;;;5011618;28;20418;-83
2023/08/19 03:08:07;;;;;;;13.63;12.23;;;23.90;90.10;;;;;;5011617;28;20036;-84
2023/08/19 03:10:36;;;;;;;12.77;10.77;;;23.90;90.10;;;;;;5026826;28;20022;-84
2023/08/19 03:13:06;;;;;;;12.32;10.98;;;23.90;90.00;;;;;;5011494;28;20026;-83
2023/08/19 03:15:34;;;;;;;13.68;11.48;;;23.90;90.00;;;;;;5010111;28;20394;-84
2023/08/19 03:18:00;;;;;;;12.60;11.30;;;23.90;90.00;;;;;;5011510;28;20022;-84
2023/08/19 03:20:26;;;;;;;12.13;10.93;;;23.90;90.00;;;;;;5010113;28;20501;-84
2023/08/19 03:22:52;;;;;;;12.50;11.30;;;23.90;90.00;;;;;;5026567;28;20496;-84
2023/08/19 03:25:17;;;;;;;11.75;10.60;;;23.90;90.00;;;;;;5010257;28;20018;-84
2023/08/19 03:27:43;;;;;;;13.15;10.70;;;23.90;90.00;;;;;;5026464;28;20022;-84
2023/08/19 03:30:09;;;;;;;12.80;11.50;;;24.00;89.90;;;;;;5026287;28;20057;-83
2023/08/19 03:32:35;;;;;;;12.25;11.07;;;24.00;89.80;;;;;;5013357;28;20394;-84
2023/08/19 03:35:01;;;;;;;11.93;10.77;;;24.10;89.60;;;;;;5011098;28;20037;-84
2023/08/19 03:37:26;;;;;;;12.02;10.90;;;24.10;89.50;;;;;;5026386;28;20026;-85
2023/08/19 03:39:52;;;;;;;12.85;11.27;;;24.10;89.30;;;;;;5011596;28;20036;-84
2023/08/19 03:42:18;;;;;;;12.18;10.70;;;24.10;89.20;;;;;;5011653;28;20492;-84
2023/08/19 03:44:44;;;;;;;12.40;10.98;;;24.20;89.10;;;;;;5030592;28;20033;-85
2023/08/19 03:47:13;;;;;;;12.77;10.95;;;24.20;89.00;;;;;;5015474;28;20030;-84
2023/08/19 03:49:39;;;;;;;13.85;11.93;;;24.30;88.80;;;;;;5030051;28;20026;-85
2023/08/19 03:52:06;;;;;;;13.15;11.75;;;24.30;88.70;;;;;;5014936;28;20505;-84
2023/08/19 03:54:32;;;;;;;13.88;11.23;;;24.30;88.50;;;;;;5015028;28;20439;-84
2023/08/19 03:56:58;;;;;;;12.07;10.85;;;24.40;88.50;;;;;;5013585;28;20069;-84
2023/08/19 03:59:24;;;;;;;12.73;11.43;;;24.40;88.40;;;;;;5013701;28;20540;-84
2023/08/19 04:01:50;;;;;;;12.00;10.73;;;24.50;88.30;;;;;;5013510;28;20062;-84
2023/08/19 04:04:15;;;;;;;12.43;11.23;;;24.50;88.10;;;;;;5013350;28;20026;-84
2023/08/19 04:06:41;;;;;;;12.90;11.18;;;24.50;88.20;;;;;;5013318;28;20022;-85
2023/08/19 04:09:08;;;;;;;12.90;10.68;;;24.60;87.70;;;;;;5014503;28;20540;-84
2023/08/19 04:11:33;;;;;;;12.68;11.30;;;24.70;87.70;;;;;;5013207;28;20025;-84
2023/08/19 04:13:59;;;;;;;11.82;10.65;;;24.80;87.60;;;;;;5014468;28;20029;-85
2023/08/19 04:16:25;;;;;;;12.38;11.07;;;24.80;87.20;;;;;;5013168;28;20429;-85
2023/08/19 04:18:51;;;;;;;11.70;10.60;;;24.90;87.00;;;;;;5013186;28;20026;-84
2023/08/19 04:21:17;;;;;;;12.52;11.23;;;25.00;86.70;;;;;;5014410;28;20025;-85
2023/08/19 04:23:43;;;;;;;12.15;10.85;;;25.00;86.40;;;;;;5014637;28;20034;-85
2023/08/19 04:26:09;;;;;;;12.25;11.05;;;25.10;86.20;;;;;;5014217;28;20030;-84
2023/08/19 04:28:34;;;;;;;13.00;11.57;;;25.30;85.70;;;;;;5030050;28;20095;-84
2023/08/19 04:31:07;;;;;;;12.30;11.00;;;25.30;85.20;;;;;;5012878;28;20068;-84
2023/08/19 04:33:34;;;;;;;12.25;11.05;;;25.40;84.70;;;;;;5029175;28;20113;-85
2023/08/19 04:36:01;;;;;;;13.73;11.95;;;25.40;84.40;;;;;;5013917;28;20497;-85
2023/08/19 04:38:27;;;;;;;12.60;11.35;;;25.40;84.00;;;;;;5013981;28;20413;-84
2023/08/19 04:40:53;;;;;;;12.75;11.27;;;25.40;84.00;;;;;;5029050;28;20099;-85
2023/08/19 04:43:19;;;;;;;11.93;10.77;;;25.50;84.20;;;;;;5012390;28;20120;-84
2023/08/19 04:45:45;;;;;;;13.73;10.85;;;25.60;84.10;;;;;;5013697;28;20120;-85
2023/08/19 04:48:11;;;;;;;11.80;10.70;;;25.70;83.60;;;;;;5012128;28;20030;-84
2023/08/19 04:50:36;;;;;;;11.65;10.50;;;25.70;82.60;;;;;;5012681;28;20026;-85
2023/08/19 04:53:03;;;;;;;13.30;11.48;;;25.80;82.60;;;;;;5031216;28;20029;-85
2023/08/19 04:55:29;;;;;;;11.93;10.75;;;25.80;82.20;;;;;;5013620;28;20037;-86
2023/08/19 04:57:55;;;;;;;12.70;11.50;;;25.80;82.20;;;;;;5028801;28;20021;-85
2023/08/19 05:00:21;;;;;;;12.85;11.55;;;25.90;82.20;;;;;;5028501;28;20026;-85
2023/08/19 05:02:48;;;;;;;14.00;11.68;;;25.80;82.10;;;;;;5012332;28;20030;-84
2023/08/19 05:05:13;;;;;;;12.63;11.43;;;25.80;82.40;;;;;;5014052;28;20025;-83
2023/08/19 05:07:39;;;;;;;13.05;11.75;;;25.80;82.60;;;;;;5013415;28;20643;-83
2023/08/19 05:10:05;;;;;;;12.70;11.50;;;25.80;82.30;;;;;;5028834;28;20389;-85
2023/08/19 05:12:31;;;;;;;13.55;11.70;;;25.90;82.10;;;;;;5028814;28;20022;-86
2023/08/19 05:14:56;;;;;;;12.93;10.77;;;25.90;81.70;;;;;;5012065;28;20075;-86
2023/08/19 05:17:22;;;;;;;12.20;11.00;;;25.90;81.70;;;;;;5011900;28;20140;-85
2023/08/19 05:19:48;;;;;;;12.40;11.10;;;26.00;81.70;;;;;;5010953;28;20116;-85
2023/08/19 05:22:13;;;;;;;12.40;11.20;;;26.00;81.60;;;;;;5010367;28;20030;-85
2023/08/19 05:24:39;;;;;;;17.33;12.25;;;26.00;81.20;;;;;;5012657;28;20022;-86
2023/08/19 05:27:05;;;;;;;12.60;11.25;;;26.10;81.30;;;;;;5029285;28;20029;-85
2023/08/19 05:29:31;;;;;;;12.63;11.32;;;26.10;81.30;;;;;;5012441;28;20393;-85
2023/08/19 05:31:57;;;;;;;12.57;11.30;;;26.20;80.80;;;;;;5011510;28;20025;-85
2023/08/19 05:34:27;;;;;;;15.95;11.35;;;26.30;80.50;;;;;;5011584;28;20029;-86
2023/08/19 05:36:53;;;;;;;12.60;11.25;;;26.40;80.20;;;;;;5009572;28;20057;-86
2023/08/19 05:39:18;;;;;;;11.75;10.57;;;26.50;80.00;;;;;;5010637;28;20033;-86
2023/08/19 05:41:44;;;;;;;11.90;10.73;;;26.50;79.80;;;;;;5011501;28;20500;-86
2023/08/19 05:44:10;;;;;;;12.55;11.20;;;26.50;79.70;;;;;;5012159;28;20030;-85
2023/08/19 05:46:35;;;;;;;12.55;11.25;;;26.50;79.90;;;;;;5011928;28;20076;-86
2023/08/19 05:49:01;;;;;;;12.07;10.93;;;26.50;79.80;;;;;;5011310;28;20033;-85
2023/08/19 05:51:27;;;;;;;12.65;11.32;;;26.50;79.70;;;;;;5012473;28;20022;-86
2023/08/19 05:54:00;;;;;;;12.35;11.05;;;26.50;79.80;;;;;;5011169;28;20858;-86
2023/08/19 05:56:26;;;;;;;15.50;11.85;;;26.50;80.10;;;;;;5011344;28;20113;-87
2023/08/19 05:58:52;;;;;;;12.88;11.48;;;26.50;80.10;;;;;;5012403;28;20108;-85
2023/08/19 06:01:18;;;;;;;12.02;10.85;;;26.60;79.50;;;;;;5011038;28;20129;-85
2023/08/19 06:03:44;;;;;;;12.63;11.43;;;26.60;79.40;;;;;;5009945;28;20140;-85
2023/08/19 06:06:10;;;;;;;13.27;11.98;;;26.60;79.40;;;;;;5009578;28;20083;-86
2023/08/19 06:08:36;;;;;;;12.55;11.25;;;26.70;79.00;;;;;;5027592;28;20037;-86
2023/08/19 06:11:05;;;;;;;13.80;11.90;;;26.70;79.10;;;;;;5012072;28;20124;-86
2023/08/19 06:13:31;;;;;;;12.32;11.02;;;26.70;79.10;;;;;;5009930;28;20113;-85
2023/08/19 06:15:57;;;;;;;12.52;11.32;;;26.80;79.10;;;;;;5027195;28;20029;-86
2023/08/19 06:18:24;;;;;;;12.18;10.88;;;26.90;79.10;;;;;;5012286;28;20022;-86
2023/08/19 06:20:51;;;;;;;13.07;11.07;;;26.90;78.90;;;;;;5011576;28;20030;-85
2023/08/19 06:23:20;;;;;;;13.18;11.93;;;26.90;78.40;;;;;;5025858;28;20437;-86
2023/08/19 06:25:50;;;;;;;12.75;11.45;;;26.90;78.50;;;;;;5018781;28;20026;-86
2023/08/19 06:28:16;;;;;;;12.40;11.20;;;26.90;78.40;;;;;;5008668;28;20025;-86
2023/08/19 06:30:43;;;;;;;11.63;10.55;;;27.00;78.30;;;;;;5007923;28;20363;-86
2023/08/19 06:33:09;;;;;;;13.00;11.02;;;27.00;78.20;;;;;;5008069;28;20076;-85
2023/08/19 06:35:36;;;;;;;12.10;10.90;;;27.00;78.00;;;;;;5009013;28;20385;-86
2023/08/19 06:38:21;;;;;;;12.98;11.63;;;27.00;77.90;;;;;;5010303;28;20018;-86
2023/08/19 06:41:02;;;;;;;13.20;11.73;;;27.10;78.00;;;;;;5010969;28;20113;-86
2023/08/19 06:43:30;;;;;;;12.80;11.50;;;27.10;78.20;;;;;;5010002;28;20030;-85
2023/08/19 06:45:56;;;;;;;12.68;11.40;;;27.10;78.50;;;;;;5009749;28;20386;-86
2023/08/19 06:48:23;;;;;;;13.85;11.68;;;27.10;78.00;;;;;;5007944;28;20033;-86
2023/08/19 06:50:51;;;;;;;12.32;11.13;;;27.10;78.00;;;;;;5009736;28;20072;-85
2023/08/19 06:53:17;;;;;;;13.35;12.00;;;27.20;78.20;;;;;;5008117;28;20022;-85
2023/08/19 06:55:48;;;;;;;14.38;11.15;;;27.20;77.90;;;;;;5008176;28;20462;-85
2023/08/19 06:58:22;;;;;;;12.73;11.50;;;27.20;77.70;;;;;;5010569;28;20026;-85
2023/08/19 07:00:51;;;;;;;12.70;11.50;;;27.20;78.10;;;;;;5009134;28;20113;-86
2023/08/19 07:03:19;;;;;;;12.57;11.32;;;27.20;78.30;;;;;;5010980;28;20113;-86
2023/08/19 07:05:47;;;;;;;13.05;11.55;;;27.30;78.20;;;;;;5011440;28;20045;-86
2023/08/19 07:08:15;;;;;;;13.43;11.80;;;27.30;78.40;;;;;;5010531;28;20030;-85
2023/08/19 07:10:41;;;;;;;13.65;12.25;;;27.30;78.50;;;;;;5026851;28;20029;-85
2023/08/19 07:13:07;;;;;;;12.57;11.27;;;27.30;78.50;;;;;;5026778;28;20548;-86
2023/08/19 07:15:33;;;;;;;12.68;11.52;;;27.30;78.50;;;;;;5011514;28;20034;-85
2023/08/19 07:18:00;;;;;;;12.93;11.70;;;27.40;78.90;;;;;;5013311;28;20049;-86
2023/08/19 07:20:26;;;;;;;12.02;10.93;;;27.30;78.70;;;;;;5014011;28;20585;-86
2023/08/19 07:22:53;;;;;;;13.40;12.00;;;27.40;78.70;;;;;;5013873;28;20110;-86
2023/08/19 07:25:22;;;;;;;13.60;12.20;;;27.40;78.90;;;;;;5029449;28;20095;-86
2023/08/19 07:27:48;;;;;;;14.10;12.63;;;27.40;78.60;;;;;;5014748;28;20436;-86
2023/08/19 07:30:14;;;;;;;13.13;11.95;;;27.40;78.90;;;;;;5013448;28;20461;-85
2023/08/19 07:32:40;;;;;;;12.88;11.68;;;27.40;79.00;;;;;;5013593;28;20058;-85
2023/08/19 07:35:06;;;;;;;12.75;11.52;;;27.40;78.50;;;;;;5014727;28;20046;-86
2023/08/19 07:37:33;;;;;;;12.73;11.35;;;27.40;78.60;;;;;;5030689;28;20018;-86
2023/08/19 07:39:59;;;;;;;13.35;12.02;;;27.40;78.20;;;;;;5013834;28;20300;-86
2023/08/19 07:42:27;;;;;;;12.38;11.07;;;27.40;78.10;;;;;;5015012;28;20030;-86
2023/08/19 07:44:53;;;;;;;13.50;11.10;;;27.40;78.00;;;;;;5013659;28;20036;-86
2023/08/19 07:47:19;;;;;;;12.57;11.35;;;27.50;78.00;;;;;;5015235;28;20105;-86
2023/08/19 07:49:45;;;;;;;13.43;10.75;;;27.50;77.80;;;;;;5014984;28;20523;-86
2023/08/19 07:52:11;;;;;;;15.50;10.75;;;27.50;77.60;;;;;;5013742;28;20375;-86
2023/08/19 07:54:37;;;;;;;11.60;9.93;;;27.50;77.10;;;;;;5013559;28;20026;-86
2023/08/19 07:57:02;;;;;;;13.50;9.98;;;27.50;76.30;;;;;;5029920;28;20037;-86
2023/08/19 07:59:28;;;;;;;10.75;9.73;;;27.50;75.70;;;;;;5014884;28;20152;-85
2023/08/19 08:01:56;;;;;;;11.10;9.95;;;27.50;75.40;;;;;;5029851;28;20909;-86
2023/08/19 08:04:22;;;;;;;13.13;10.13;;;27.60;75.00;;;;;;5013396;28;20025;-86
2023/08/19 08:06:51;;;;;;;10.60;9.60;;;27.60;74.50;;;;;;5013410;28;20033;-86
2023/08/19 08:09:17;;;;;;;10.80;9.80;;;27.60;74.70;;;;;;5013117;28;20030;-85
2023/08/19 08:11:45;;;;;;;11.93;9.27;;;27.60;74.80;;;;;;5013388;28;20022;-86
2023/08/19 08:14:11;;;;;;;10.05;9.15;;;27.60;74.50;;;;;;5013154;28;20018;-86
2023/08/19 08:16:36;;;;;;;10.25;9.30;;;27.60;74.60;;;;;;5014338;28;20037;-86
2023/08/19 08:19:02;;;;;;;10.25;9.25;;;27.60;74.60;;;;;;5014791;28;20042;-86
2023/08/19 08:21:28;;;;;;;10.38;9.25;;;27.60;74.30;;;;;;5013065;28;20508;-85
2023/08/19 08:23:54;;;;;;;9.88;8.95;;;27.60;74.10;;;;;;5014453;28;20060;-86
2023/08/19 08:26:20;;;;;;;10.98;9.82;;;27.60;74.10;;;;;;5015056;28;20026;-86
2023/08/19 08:28:46;;;;;;;13.85;10.40;;;27.60;74.70;;;;;;5029465;28;20030;-85
2023/08/19 08:31:12;;;;;;;11.65;10.55;;;27.60;75.20;;;;;;5012832;28;20026;-86
2023/08/19 08:33:38;;;;;;;12.45;9.35;;;27.60;75.50;;;;;;5012946;28;20029;-86
2023/08/19 08:36:03;;;;;;;14.40;10.82;;;27.60;75.50;;;;;;5013923;28;20049;-85
2023/08/19 08:38:29;;;;;;;12.40;11.10;;;27.60;75.50;;;;;;5013567;28;20648;-86
2023/08/19 08:40:59;;;;;;;12.10;10.85;;;27.70;75.90;;;;;;5013669;28;20021;-85
2023/08/19 08:43:25;;;;;;;11.40;10.20;;;27.60;76.90;;;;;;5010265;28;20022;-86
2023/08/19 08:45:53;;;;;;;12.73;11.43;;;27.60;77.10;;;;;;5012518;28;20030;-86
2023/08/19 08:48:19;;;;;;;12.25;11.05;;;27.60;77.50;;;;;;5010744;28;20045;-86
2023/08/19 08:50:45;;;;;;;11.85;10.65;;;27.60;77.80;;;;;;5013766;28;20026;-86
2023/08/19 08:53:12;;;;;;;11.88;10.55;;;27.60;77.60;;;;;;5011511;28;20511;-85
2023/08/19 08:55:38;;;;;;;11.55;10.43;;;27.60;77.90;;;;;;5012302;28;20018;-86
2023/08/19 08:58:04;;;;;;;11.93;10.65;;;27.60;78.10;;;;;;5010926;28;20095;-85
2023/08/19 09:00:31;;;;;;;12.70;11.40;;;27.60;78.40;;;;;;5027859;28;20033;-86
2023/08/19 09:02:58;;;;;;;12.18;11.10;;;27.60;78.60;;;;;;5011417;28;20033;-86
2023/08/19 09:05:26;;;;;;;12.43;10.68;;;27.60;78.60;;;;;;5012983;28;20029;-86
2023/08/19 09:07:54;;;;;;;11.38;10.00;;;27.60;78.90;;;;;;5012358;28;20030;-85
2023/08/19 09:10:23;;;;;;;11.88;10.77;;;27.60;79.10;;;;;;5011134;28;20025;-87
2023/08/19 09:12:56;;;;;;;11.48;10.38;;;27.60;79.50;;;;;;5013043;28;20028;-86
2023/08/19 09:15:24;;;;;;;11.05;10.02;;;27.60;79.20;;;;;;5011999;28;20061;-86
2023/08/19 09:17:50;;;;;;;15.63;10.80;;;27.60;79.00;;;;;;5013148;28;20028;-86
2023/08/19 09:20:17;;;;;;;11.30;10.27;;;27.60;79.00;;;;;;5011403;28;20030;-86
2023/08/19 09:22:44;;;;;;;11.43;10.23;;;27.60;78.90;;;;;;5027259;28;20037;-86
2023/08/19 09:25:14;;;;;;;11.52;10.35;;;27.60;78.60;;;;;;5011878;28;20416;-86
2023/08/19 09:27:40;;;;;;;14.20;10.68;;;27.60;78.90;;;;;;5013315;28;20076;-86
2023/08/19 09:30:07;;;;;;;11.40;10.30;;;27.60;78.90;;;;;;5013243;28;20111;-85
2023/08/19 09:32:39;;;;;;;11.38;9.88;;;27.60;78.70;;;;;;5028309;28;20036;-85
2023/08/19 09:35:08;;;;;;;11.07;9.90;;;27.60;78.90;;;;;;5011819;28;20435;-85
2023/08/19 09:37:35;;;;;;;11.52;10.38;;;27.70;78.90;;;;;;5011723;28;20037;-86
2023/08/19 09:40:07;;;;;;;10.60;9.57;;;27.70;79.10;;;;;;5011072;28;20061;-86
2023/08/19 09:42:33;;;;;;;11.50;10.30;;;27.70;79.30;;;;;;5012934;28;20026;-86
2023/08/19 09:44:59;;;;;;;11.02;10.02;;;27.70;79.10;;;;;;5012748;28;20389;-86
2023/08/19 09:47:24;;;;;;;14.23;10.95;;;27.70;79.20;;;;;;5012731;28;20038;-86
2023/08/19 09:49:52;;;;;;;11.10;10.10;;;27.80;79.00;;;;;;5011272;28;20030;-87
2023/08/19 09:52:18;;;;;;;11.48;10.20;;;27.80;78.80;;;;;;5011624;28;20029;-86
2023/08/19 09:54:52;;;;;;;11.57;10.02;;;27.80;78.20;;;;;;5012671;28;20034;-86
2023/08/19 09:57:18;;;;;;;11.10;10.02;;;27.80;77.90;;;;;;5012400;28;20026;-85
2023/08/19 09:59:44;;;;;;;11.88;9.25;;;27.80;77.70;;;;;;5011351;28;20030;-86
2023/08/19 10:02:12;;;;;;;10.40;9.45;;;27.80;77.60;;;;;;5012363;28;20410;-86
2023/08/19 10:04:38;;;;;;;10.73;9.65;;;27.90;77.40;;;;;;5012479;28;20026;-86
2023/08/19 10:07:07;;;;;;;10.90;9.38;;;27.90;77.20;;;;;;5011105;28;20125;-86
2023/08/19 10:09:36;;;;;;;11.20;9.77;;;27.90;76.90;;;;;;5011097;28;20029;-86
2023/08/19 10:12:02;;;;;;;10.65;9.55;;;27.90;76.90;;;;;;5012398;28;20026;-85
2023/08/19 10:14:31;;;;;;;14.95;10.30;;;27.90;76.50;;;;;;5012281;28;20373;-85
2023/08/19 10:17:05;;;;;;;12.32;10.00;;;27.90;76.20;;;;;;5011056;28;20505;-86
2023/08/19 10:19:43;;;;;;;10.48;8.82;;;27.90;75.80;;;;;;5012557;28;20087;-86
2023/08/19 10:22:12;;;;;;;12.35;9.40;;;27.90;75.50;;;;;;5011005;28;20076;-87
2023/08/19 10:24:39;;;;;;;12.50;9.13;;;27.90;75.40;;;;;;5010879;28;20053;-86
2023/08/19 10:27:05;;;;;;;10.00;9.07;;;28.00;75.80;;;;;;5011976;28;20029;-86
2023/08/19 10:29:30;;;;;;;9.73;8.73;;;28.00;74.80;;;;;;5027231;28;20042;-85
2023/08/19 10:31:56;;;;;;;10.25;9.18;;;28.00;74.50;;;;;;5027341;28;20026;-86
2023/08/19 10:34:25;;;;;;;10.65;8.82;;;28.00;74.40;;;;;;5012104;28;20044;-85
2023/08/19 10:37:10;;;;;;;10.38;9.20;;;28.00;74.00;;;;;;5027217;28;20030;-86
2023/08/19 10:39:36;;;;;;;10.07;8.77;;;28.10;74.10;;;;;;5011877;28;20524;-86
2023/08/19 10:42:02;;;;;;;10.80;8.35;;;28.10;73.60;;;;;;5012072;28;20033;-86
2023/08/19 10:44:33;;;;;;;9.25;8.35;;;28.10;73.40;;;;;;5010898;28;20026;-86
2023/08/19 10:47:09;;;;;;;10.63;8.95;;;28.10;73.30;;;;;;5011814;28;20025;-86
2023/08/19 10:49:35;;;;;;;9.93;8.20;;;28.10;73.10;;;;;;5009249;28;20049;-85
2023/08/19 10:52:03;;;;;;;9.38;8.07;;;28.20;72.60;;;;;;5008920;28;20117;-86
2023/08/19 10:54:40;;;;;;;9.35;8.45;;;28.20;72.60;;;;;;5010127;28;20394;-86
2023/08/19 10:57:10;;;;;;;8.77;7.30;;;28.20;72.80;;;;;;5011505;28;20061;-86
2023/08/19 10:59:37;;;;;;;9.20;8.25;;;28.20;72.90;;;;;;5026657;28;20071;-85
2023/08/19 11:02:04;;;;;;;8.85;7.72;;;28.20;72.30;;;;;;5027384;28;20037;-86
2023/08/19 11:04:31;;;;;;;8.82;7.90;;;28.20;72.00;;;;;;5010143;28;20172;-86
2023/08/19 11:06:57;;;;;;;8.32;7.28;;;28.20;71.20;;;;;;5011769;28;20022;-86
2023/08/19 11:09:25;;;;;;;8.68;7.82;;;28.30;70.50;;;;;;5009766;28;20541;-86
2023/08/19 11:11:51;;;;;;;8.85;7.72;;;28.30;70.20;;;;;;5009901;28;20038;-86
2023/08/19 11:14:17;;;;;;;8.65;6.85;;;28.30;69.70;;;;;;5011772;28;20491;-86
2023/08/19 11:16:51;;;;;;;9.38;7.47;;;28.30;69.10;;;;;;5011519;28;20022;-86
2023/08/19 11:19:18;;;;;;;8.35;6.93;;;28.30;68.90;;;;;;5010506;28;20026;-86
2023/08/19 11:21:44;;;;;;;8.18;7.38;;;28.30;68.50;;;;;;5009019;28;20034;-86
2023/08/19 11:24:11;;;;;;;9.35;6.88;;;28.40;69.00;;;;;;5009126;28;20022;-86
2023/08/19 11:26:37;;;;;;;9.25;6.65;;;28.40;68.90;;;;;;5010075;28;20033;-86
2023/08/19 11:29:04;;;;;;;8.13;6.95;;;28.40;68.30;;;;;;5011014;28;20034;-85
2023/08/19 11:31:30;;;;;;;7.72;6.93;;;28.40;67.90;;;;;;5011341;28;20036;-85
2023/08/19 11:33:56;;;;;;;9.20;7.28;;;28.40;68.10;;;;;;5010063;28;20117;-85
2023/08/19 11:36:25;;;;;;;7.68;6.95;;;28.50;68.50;;;;;;5009768;28;20042;-86
2023/08/19 11:38:57;;;;;;;7.97;7.28;;;28.40;68.60;;;;;;5009985;28;20030;-86
2023/08/19 11:41:24;;;;;;;7.22;6.50;;;28.50;68.10;;;;;;5009774;28;20057;-86
2023/08/19 11:43:54;;;;;;;8.38;7.38;;;28.50;68.10;;;;;;5010925;28;20485;-88
2023/08/19 11:46:20;;;;;;;8.05;6.75;;;28.50;68.00;;;;;;5009427;28;20397;-86
2023/08/19 11:48:46;;;;;;;9.13;7.35;;;28.50;67.40;;;;;;5010751;28;20481;-85
2023/08/19 11:51:13;;;;;;;7.75;7.05;;;28.60;67.30;;;;;;5010743;28;20022;-85
2023/08/19 11:53:41;;;;;;;9.07;7.07;;;28.50;67.10;;;;;;5009415;28;20477;-86
2023/08/19 11:56:07;;;;;;;10.30;7.05;;;28.60;67.10;;;;;;5011158;28;20028;-86
2023/08/19 11:58:41;;;;;;;9.73;6.95;;;28.60;67.00;;;;;;5010158;28;20083;-86
2023/08/19 12:01:07;;;;;;;8.05;7.22;;;28.60;67.00;;;;;;5026400;28;20584;-85
2023/08/19 12:03:32;;;;;;;8.95;6.93;;;28.60;67.10;;;;;;5010493;28;20124;-86
2023/08/19 12:05:58;;;;;;;8.75;6.70;;;28.60;67.20;;;;;;5029455;28;20064;-86
2023/08/19 12:08:28;;;;;;;7.10;6.40;;;28.60;67.00;;;;;;5013430;28;20046;-86
2023/08/19 12:10:53;;;;;;;8.55;6.50;;;28.60;66.80;;;;;;5015084;28;20057;-85
2023/08/19 12:13:23;;;;;;;8.45;7.53;;;28.60;66.70;;;;;;5029770;28;20053;-86
2023/08/19 12:15:50;;;;;;;9.90;7.10;;;28.60;66.40;;;;;;5013094;28;20394;-86
2023/08/19 12:18:18;;;;;;;10.23;6.80;;;28.60;66.90;;;;;;5014498;28;20260;-86
2023/08/19 12:20:45;;;;;;;9.85;7.78;;;28.60;66.10;;;;;;5029804;28;20033;-86
2023/08/19 12:23:11;;;;;;;8.48;6.53;;;28.60;65.70;;;;;;5014631;28;20057;-87
2023/08/19 12:25:59;;;;;;;7.97;6.53;;;28.70;65.60;;;;;;5014581;28;20520;-86
2023/08/19 12:28:26;;;;;;;7.53;6.72;;;28.70;65.60;;;;;;5014191;28;20037;-86
2023/08/19 12:30:52;;;;;;;8.32;6.45;;;28.60;65.40;;;;;;5012922;28;20528;-86
2023/08/19 12:33:19;;;;;;;7.60;5.95;;;28.60;65.30;;;;;;5013098;28;20021;-86